METAR Data
IDs: Format: Raw Decoded Include TAF

Data at: 1426 UTC 27 Nov 2021

NZAA 271400Z AUTO 06003KT 9999 NCD 15/14 Q1023 NOSIG